sensor_id;sensor_type;location;lat;lon;timestamp;pressure;altitude;pressure_sealevel;temperature;humidity
58070;BME280;43863;52.256;21.048;2022-07-04T00:04:52;100723.84;;;21.56;68.14
58070;BME280;43863;52.256;21.048;2022-07-04T00:08:04;100727.25;;;21.52;68.38
58070;BME280;43863;52.256;21.048;2022-07-04T00:10:55;100733.16;;;21.49;68.41
58070;BME280;43863;52.256;21.048;2022-07-04T00:13:34;100729.50;;;21.43;68.51
58070;BME280;43863;52.256;21.048;2022-07-04T00:16:25;100734.09;;;21.43;68.61
58070;BME280;43863;52.256;21.048;2022-07-04T00:18:53;100732.47;;;21.42;68.71
58070;BME280;43863;52.256;21.048;2022-07-04T00:21:21;100724.38;;;21.42;68.88
58070;BME280;43863;52.256;21.048;2022-07-04T00:23:49;100722.69;;;21.41;69.08
58070;BME280;43863;52.256;21.048;2022-07-04T00:26:17;100721.88;;;21.40;69.23
58070;BME280;43863;52.256;21.048;2022-07-04T00:28:45;100711.34;;;21.39;69.47
58070;BME280;43863;52.256;21.048;2022-07-04T00:31:12;100710.25;;;21.40;69.53
58070;BME280;43863;52.256;21.048;2022-07-04T00:33:43;100711.34;;;21.39;69.42
58070;BME280;43863;52.256;21.048;2022-07-04T00:36:11;100708.97;;;21.30;69.53
58070;BME280;43863;52.256;21.048;2022-07-04T00:38:39;100702.75;;;21.30;69.50
58070;BME280;43863;52.256;21.048;2022-07-04T00:41:07;100704.38;;;21.31;69.69
58070;BME280;43863;52.256;21.048;2022-07-04T00:43:35;100702.38;;;21.26;69.71
58070;BME280;43863;52.256;21.048;2022-07-04T00:46:23;100689.81;;;21.20;69.75
58070;BME280;43863;52.256;21.048;2022-07-04T00:48:50;100694.56;;;21.13;70.11
58070;BME280;43863;52.256;21.048;2022-07-04T00:51:44;100685.28;;;21.09;70.37
58070;BME280;43863;52.256;21.048;2022-07-04T00:54:14;100689.03;;;21.08;70.20
58070;BME280;43863;52.256;21.048;2022-07-04T00:56:44;100690.78;;;21.02;70.34
58070;BME280;43863;52.256;21.048;2022-07-04T01:02:22;100679.78;;;20.92;70.82
58070;BME280;43863;52.256;21.048;2022-07-04T01:04:50;100675.19;;;20.93;70.91
58070;BME280;43863;52.256;21.048;2022-07-04T01:07:19;100681.41;;;20.93;70.89
58070;BME280;43863;52.256;21.048;2022-07-04T01:09:47;100674.38;;;20.92;70.83
58070;BME280;43863;52.256;21.048;2022-07-04T01:12:27;100675.09;;;20.87;71.33
58070;BME280;43863;52.256;21.048;2022-07-04T01:14:55;100672.28;;;20.82;71.41
58070;BME280;43863;52.256;21.048;2022-07-04T01:17:23;100670.41;;;20.83;71.51
58070;BME280;43863;52.256;21.048;2022-07-04T01:19:51;100672.84;;;20.84;71.65
58070;BME280;43863;52.256;21.048;2022-07-04T01:22:19;100683.09;;;20.82;71.73
58070;BME280;43863;52.256;21.048;2022-07-04T01:24:48;100677.91;;;20.81;71.55
58070;BME280;43863;52.256;21.048;2022-07-04T01:27:17;100674.41;;;20.80;71.83
58070;BME280;43863;52.256;21.048;2022-07-04T01:29:45;100685.66;;;20.77;71.86
58070;BME280;43863;52.256;21.048;2022-07-04T01:32:13;100690.47;;;20.75;72.03
58070;BME280;43863;52.256;21.048;2022-07-04T01:34:41;100686.97;;;20.75;72.11
58070;BME280;43863;52.256;21.048;2022-07-04T01:37:10;100682.84;;;20.72;72.16
58070;BME280;43863;52.256;21.048;2022-07-04T01:39:38;100689.53;;;20.70;71.92
58070;BME280;43863;52.256;21.048;2022-07-04T01:42:06;100698.91;;;20.67;72.08
58070;BME280;43863;52.256;21.048;2022-07-04T01:44:34;100689.19;;;20.66;72.09
58070;BME280;43863;52.256;21.048;2022-07-04T01:47:02;100695.66;;;20.65;72.19
58070;BME280;43863;52.256;21.048;2022-07-04T01:49:30;100690.47;;;20.63;72.00
58070;BME280;43863;52.256;21.048;2022-07-04T01:51:59;100697.50;;;20.64;72.25
58070;BME280;43863;52.256;21.048;2022-07-04T01:54:26;100688.38;;;20.65;71.82
58070;BME280;43863;52.256;21.048;2022-07-04T01:56:54;100688.84;;;20.62;71.91
58070;BME280;43863;52.256;21.048;2022-07-04T01:59:47;100692.81;;;20.60;71.84
58070;BME280;43863;52.256;21.048;2022-07-04T02:02:36;100695.66;;;20.53;71.68
58070;BME280;43863;52.256;21.048;2022-07-04T02:05:04;100688.81;;;20.51;71.72
58070;BME280;43863;52.256;21.048;2022-07-04T02:07:32;100681.75;;;20.50;72.06
58070;BME280;43863;52.256;21.048;2022-07-04T02:10:00;100683.63;;;20.49;72.13
58070;BME280;43863;52.256;21.048;2022-07-04T02:12:28;100682.22;;;20.46;72.03
58070;BME280;43863;52.256;21.048;2022-07-04T02:15:14;100688.69;;;20.45;71.87
58070;BME280;43863;52.256;21.048;2022-07-04T02:17:42;100683.28;;;20.45;72.27
58070;BME280;43863;52.256;21.048;2022-07-04T02:20:10;100687.84;;;20.45;72.15
58070;BME280;43863;52.256;21.048;2022-07-04T02:22:37;100688.69;;;20.45;72.03
58070;BME280;43863;52.256;21.048;2022-07-04T02:25:06;100691.38;;;20.45;72.29
58070;BME280;43863;52.256;21.048;2022-07-04T02:27:34;100694.88;;;20.46;72.24
58070;BME280;43863;52.256;21.048;2022-07-04T02:30:02;100691.63;;;20.44;72.16
58070;BME280;43863;52.256;21.048;2022-07-04T02:32:30;100693.47;;;20.43;72.28
58070;BME280;43863;52.256;21.048;2022-07-04T02:34:58;100692.44;;;20.44;72.39
58070;BME280;43863;52.256;21.048;2022-07-04T02:37:25;100688.06;;;20.43;72.57
58070;BME280;43863;52.256;21.048;2022-07-04T02:39:54;100689.50;;;20.46;72.61
58070;BME280;43863;52.256;21.048;2022-07-04T02:42:22;100681.66;;;20.44;72.42
58070;BME280;43863;52.256;21.048;2022-07-04T02:44:50;100683.75;;;20.42;72.43
58070;BME280;43863;52.256;21.048;2022-07-04T02:47:17;100678.00;;;20.39;72.62
58070;BME280;43863;52.256;21.048;2022-07-04T02:49:45;100679.28;;;20.36;72.56
58070;BME280;43863;52.256;21.048;2022-07-04T02:52:13;100678.22;;;20.37;72.98
58070;BME280;43863;52.256;21.048;2022-07-04T02:54:41;100673.88;;;20.36;72.86
58070;BME280;43863;52.256;21.048;2022-07-04T02:57:10;100672.72;;;20.32;73.01
58070;BME280;43863;52.256;21.048;2022-07-04T02:59:38;100680.56;;;20.34;72.95
58070;BME280;43863;52.256;21.048;2022-07-04T03:02:05;100681.75;;;20.38;72.74
58070;BME280;43863;52.256;21.048;2022-07-04T03:04:33;100687.72;;;20.40;73.01
58070;BME280;43863;52.256;21.048;2022-07-04T03:07:01;100687.84;;;20.45;72.83
58070;BME280;43863;52.256;21.048;2022-07-04T03:09:29;100681.66;;;20.44;72.68
58070;BME280;43863;52.256;21.048;2022-07-04T03:11:57;100688.00;;;20.50;72.71
58070;BME280;43863;52.256;21.048;2022-07-04T03:14:25;100683.19;;;20.52;72.78
58070;BME280;43863;52.256;21.048;2022-07-04T03:16:52;100693.97;;;20.52;72.77
58070;BME280;43863;52.256;21.048;2022-07-04T03:19:22;100687.09;;;20.56;72.51
58070;BME280;43863;52.256;21.048;2022-07-04T03:21:49;100687.31;;;20.55;72.59
58070;BME280;43863;52.256;21.048;2022-07-04T03:24:17;100696.00;;;20.57;72.49
58070;BME280;43863;52.256;21.048;2022-07-04T03:26:45;100700.94;;;20.60;72.43
58070;BME280;43863;52.256;21.048;2022-07-04T03:29:13;100700.94;;;20.60;72.47
58070;BME280;43863;52.256;21.048;2022-07-04T03:31:40;100702.56;;;20.61;72.48
58070;BME280;43863;52.256;21.048;2022-07-04T03:34:08;100695.19;;;20.68;72.43
58070;BME280;43863;52.256;21.048;2022-07-04T03:36:36;100700.69;;;20.73;72.38
58070;BME280;43863;52.256;21.048;2022-07-04T03:39:04;100697.03;;;20.79;72.29
58070;BME280;43863;52.256;21.048;2022-07-04T03:41:56;100708.09;;;20.89;72.07
58070;BME280;43863;52.256;21.048;2022-07-04T03:44:24;100706.53;;;20.94;71.75
58070;BME280;43863;52.256;21.048;2022-07-04T03:46:51;100705.84;;;20.98;72.02
58070;BME280;43863;52.256;21.048;2022-07-04T03:49:19;100693.84;;;21.06;71.78
58070;BME280;43863;52.256;21.048;2022-07-04T03:51:47;100705.94;;;21.15;71.64
58070;BME280;43863;52.256;21.048;2022-07-04T03:54:15;100704.41;;;21.19;71.31
58070;BME280;43863;52.256;21.048;2022-07-04T03:56:44;100710.47;;;21.26;70.97
58070;BME280;43863;52.256;21.048;2022-07-04T03:59:12;100704.84;;;21.28;71.19
58070;BME280;43863;52.256;21.048;2022-07-04T04:01:39;100700.13;;;21.35;70.87
58070;BME280;43863;52.256;21.048;2022-07-04T04:04:09;100702.16;;;21.40;70.77
58070;BME280;43863;52.256;21.048;2022-07-04T04:06:55;100706.94;;;21.49;70.64
58070;BME280;43863;52.256;21.048;2022-07-04T04:09:26;100697.97;;;21.61;70.38
58070;BME280;43863;52.256;21.048;2022-07-04T04:11:54;100694.88;;;21.69;70.25
58070;BME280;43863;52.256;21.048;2022-07-04T04:14:22;100695.56;;;21.76;69.86
58070;BME280;43863;52.256;21.048;2022-07-04T04:17:01;100688.69;;;21.85;69.71
58070;BME280;43863;52.256;21.048;2022-07-04T04:19:29;100692.56;;;21.89;69.64
58070;BME280;43863;52.256;21.048;2022-07-04T04:21:57;100687.22;;;21.94;69.29
58070;BME280;43863;52.256;21.048;2022-07-04T04:24:32;100688.22;;;22.05;69.16
58070;BME280;43863;52.256;21.048;2022-07-04T04:27:01;100682.56;;;22.18;68.73
58070;BME280;43863;52.256;21.048;2022-07-04T04:29:28;100690.50;;;22.25;68.85
58070;BME280;43863;52.256;21.048;2022-07-04T04:31:56;100688.22;;;22.34;68.27
58070;BME280;43863;52.256;21.048;2022-07-04T04:34:24;100686.81;;;22.48;67.98
58070;BME280;43863;52.256;21.048;2022-07-04T04:36:52;100682.13;;;22.60;67.58
58070;BME280;43863;52.256;21.048;2022-07-04T04:39:19;100675.53;;;22.73;67.24
58070;BME280;43863;52.256;21.048;2022-07-04T04:41:56;100679.75;;;22.86;66.69
58070;BME280;43863;52.256;21.048;2022-07-04T04:44:24;100682.38;;;22.98;66.41
58070;BME280;43863;52.256;21.048;2022-07-04T04:46:51;100684.25;;;23.14;66.12
58070;BME280;43863;52.256;21.048;2022-07-04T04:49:21;100683.84;;;23.27;65.62
58070;BME280;43863;52.256;21.048;2022-07-04T04:52:14;100682.97;;;23.44;65.09
58070;BME280;43863;52.256;21.048;2022-07-04T04:54:43;100688.25;;;23.55;64.74
58070;BME280;43863;52.256;21.048;2022-07-04T04:57:12;100687.03;;;23.68;64.33
58070;BME280;43863;52.256;21.048;2022-07-04T04:59:40;100676.25;;;23.73;64.05
58070;BME280;43863;52.256;21.048;2022-07-04T05:02:08;100678.19;;;23.78;63.81
58070;BME280;43863;52.256;21.048;2022-07-04T05:04:43;100682.91;;;23.88;63.36
58070;BME280;43863;52.256;21.048;2022-07-04T05:07:11;100687.03;;;23.95;63.01
58070;BME280;43863;52.256;21.048;2022-07-04T05:09:40;100694.72;;;24.03;62.69
58070;BME280;43863;52.256;21.048;2022-07-04T05:12:32;100689.41;;;24.14;62.42
58070;BME280;43863;52.256;21.048;2022-07-04T05:15:06;100690.28;;;24.24;62.32
58070;BME280;43863;52.256;21.048;2022-07-04T05:17:34;100695.53;;;24.36;62.12
58070;BME280;43863;52.256;21.048;2022-07-04T05:20:04;100691.06;;;24.47;61.83
58070;BME280;43863;52.256;21.048;2022-07-04T05:22:32;100689.78;;;24.60;61.66
58070;BME280;43863;52.256;21.048;2022-07-04T05:25:00;100692.56;;;24.70;61.26
58070;BME280;43863;52.256;21.048;2022-07-04T05:27:53;100694.78;;;24.78;60.67
58070;BME280;43863;52.256;21.048;2022-07-04T05:30:21;100696.44;;;24.84;60.74
58070;BME280;43863;52.256;21.048;2022-07-04T05:32:49;100691.56;;;24.86;60.40
58070;BME280;43863;52.256;21.048;2022-07-04T05:35:17;100690.78;;;24.96;60.36
58070;BME280;43863;52.256;21.048;2022-07-04T05:37:44;100690.31;;;25.04;59.91
58070;BME280;43863;52.256;21.048;2022-07-04T05:40:12;100693.63;;;25.11;59.65
58070;BME280;43863;52.256;21.048;2022-07-04T05:42:40;100698.59;;;25.25;59.61
58070;BME280;43863;52.256;21.048;2022-07-04T05:45:08;100691.53;;;25.29;59.14
58070;BME280;43863;52.256;21.048;2022-07-04T05:47:37;100692.34;;;25.34;58.69
58070;BME280;43863;52.256;21.048;2022-07-04T05:50:05;100699.19;;;25.42;58.45
58070;BME280;43863;52.256;21.048;2022-07-04T05:52:33;100686.97;;;25.45;58.48
58070;BME280;43863;52.256;21.048;2022-07-04T05:55:01;100694.63;;;25.53;58.29
58070;BME280;43863;52.256;21.048;2022-07-04T05:57:30;100697.91;;;25.65;57.63
58070;BME280;43863;52.256;21.048;2022-07-04T05:59:57;100697.91;;;25.70;57.41
58070;BME280;43863;52.256;21.048;2022-07-04T06:02:25;100705.28;;;25.75;57.29
58070;BME280;43863;52.256;21.048;2022-07-04T06:04:53;100709.41;;;25.87;56.99
58070;BME280;43863;52.256;21.048;2022-07-04T06:07:20;100706.97;;;25.91;56.83
58070;BME280;43863;52.256;21.048;2022-07-04T06:09:48;100714.59;;;25.99;56.39
58070;BME280;43863;52.256;21.048;2022-07-04T06:12:16;100699.63;;;26.07;56.32
58070;BME280;43863;52.256;21.048;2022-07-04T06:14:44;100699.63;;;26.22;55.42
58070;BME280;43863;52.256;21.048;2022-07-04T06:17:13;100704.56;;;26.36;54.88
58070;BME280;43863;52.256;21.048;2022-07-04T06:19:41;100702.38;;;26.53;54.33
58070;BME280;43863;52.256;21.048;2022-07-04T06:22:09;100697.72;;;26.64;53.55
58070;BME280;43863;52.256;21.048;2022-07-04T06:24:37;100691.16;;;26.80;53.15
58070;BME280;43863;52.256;21.048;2022-07-04T06:27:04;100684.09;;;26.74;53.16
58070;BME280;43863;52.256;21.048;2022-07-04T06:29:33;100669.31;;;26.85;52.59
58070;BME280;43863;52.256;21.048;2022-07-04T06:32:01;100674.47;;;26.97;52.21
58070;BME280;43863;52.256;21.048;2022-07-04T06:34:31;100670.91;;;27.07;51.81
58070;BME280;43863;52.256;21.048;2022-07-04T06:37:17;100672.22;;;27.14;51.22
58070;BME280;43863;52.256;21.048;2022-07-04T06:39:45;100668.38;;;27.31;51.07
58070;BME280;43863;52.256;21.048;2022-07-04T06:42:15;100667.69;;;27.54;50.31
58070;BME280;43863;52.256;21.048;2022-07-04T06:44:42;100662.25;;;27.54;50.14
58070;BME280;43863;52.256;21.048;2022-07-04T06:47:11;100669.50;;;27.19;49.38
58070;BME280;43863;52.256;21.048;2022-07-04T06:49:40;100658.09;;;26.97;49.46
58070;BME280;43863;52.256;21.048;2022-07-04T06:52:08;100657.34;;;26.86;49.66
58070;BME280;43863;52.256;21.048;2022-07-04T06:54:37;100651.41;;;26.69;50.03
58070;BME280;43863;52.256;21.048;2022-07-04T06:57:04;100651.44;;;26.53;50.25
58070;BME280;43863;52.256;21.048;2022-07-04T06:59:52;100649.78;;;26.37;50.65
58070;BME280;43863;52.256;21.048;2022-07-04T07:02:22;100651.69;;;26.31;50.80
58070;BME280;43863;52.256;21.048;2022-07-04T07:04:55;100654.72;;;26.25;51.46
58070;BME280;43863;52.256;21.048;2022-07-04T07:07:23;100659.88;;;26.16;51.62
58070;BME280;43863;52.256;21.048;2022-07-04T07:09:51;100651.19;;;26.09;51.48
58070;BME280;43863;52.256;21.048;2022-07-04T07:12:23;100655.81;;;26.03;51.42
58070;BME280;43863;52.256;21.048;2022-07-04T07:14:52;100661.78;;;26.00;51.29
58070;BME280;43863;52.256;21.048;2022-07-04T07:17:22;100656.34;;;25.95;51.07
58070;BME280;43863;52.256;21.048;2022-07-04T07:19:49;100650.88;;;25.90;51.09
58070;BME280;43863;52.256;21.048;2022-07-04T07:22:19;100648.44;;;25.89;51.34
58070;BME280;43863;52.256;21.048;2022-07-04T07:24:47;100651.69;;;25.91;51.48
58070;BME280;43863;52.256;21.048;2022-07-04T07:27:16;100655.53;;;26.05;51.31
58070;BME280;43863;52.256;21.048;2022-07-04T07:29:43;100661.22;;;26.08;50.76
58070;BME280;43863;52.256;21.048;2022-07-04T07:32:12;100665.59;;;26.20;50.44
58070;BME280;43863;52.256;21.048;2022-07-04T07:35:05;100660.13;;;26.61;50.16
58070;BME280;43863;52.256;21.048;2022-07-04T07:37:33;100655.13;;;26.93;48.97
58070;BME280;43863;52.256;21.048;2022-07-04T07:40:01;100656.66;;;27.25;48.45
58070;BME280;43863;52.256;21.048;2022-07-04T07:42:30;100656.78;;;27.54;48.18
58070;BME280;43863;52.256;21.048;2022-07-04T07:44:57;100657.38;;;27.90;47.30
58070;BME280;43863;52.256;21.048;2022-07-04T07:47:25;100658.22;;;28.20;46.70
58070;BME280;43863;52.256;21.048;2022-07-04T07:49:53;100659.69;;;28.42;45.97
58070;BME280;43863;52.256;21.048;2022-07-04T07:52:21;100662.22;;;28.62;45.25
58070;BME280;43863;52.256;21.048;2022-07-04T07:54:55;100656.06;;;28.75;44.32
58070;BME280;43863;52.256;21.048;2022-07-04T07:57:28;100672.66;;;28.84;44.61
58070;BME280;43863;52.256;21.048;2022-07-04T07:59:56;100658.84;;;28.94;44.12
58070;BME280;43863;52.256;21.048;2022-07-04T08:02:24;100656.16;;;29.13;44.12
58070;BME280;43863;52.256;21.048;2022-07-04T08:05:13;100650.97;;;29.36;43.45
58070;BME280;43863;52.256;21.048;2022-07-04T08:07:43;100656.28;;;29.46;43.28
58070;BME280;43863;52.256;21.048;2022-07-04T08:10:11;100660.59;;;29.52;43.04
58070;BME280;43863;52.256;21.048;2022-07-04T08:12:40;100658.16;;;29.32;42.76
58070;BME280;43863;52.256;21.048;2022-07-04T08:15:08;100651.75;;;29.17;42.88
58070;BME280;43863;52.256;21.048;2022-07-04T08:17:37;100657.13;;;29.03;42.72
58070;BME280;43863;52.256;21.048;2022-07-04T08:20:29;100659.25;;;28.83;43.02
58070;BME280;43863;52.256;21.048;2022-07-04T08:23:15;100660.09;;;28.54;43.31
58070;BME280;43863;52.256;21.048;2022-07-04T08:26:08;100660.53;;;28.37;43.15
58070;BME280;43863;52.256;21.048;2022-07-04T08:28:36;100663.59;;;28.60;43.09
58070;BME280;43863;52.256;21.048;2022-07-04T08:31:04;100654.25;;;28.90;42.58
58070;BME280;43863;52.256;21.048;2022-07-04T08:33:32;100651.69;;;29.22;42.30
58070;BME280;43863;52.256;21.048;2022-07-04T08:36:03;100645.06;;;29.47;41.12
58070;BME280;43863;52.256;21.048;2022-07-04T08:38:31;100650.88;;;29.60;40.71
58070;BME280;43863;52.256;21.048;2022-07-04T08:41:02;100648.16;;;29.41;40.60
58070;BME280;43863;52.256;21.048;2022-07-04T08:43:31;100656.50;;;29.31;40.30
58070;BME280;43863;52.256;21.048;2022-07-04T08:46:05;100651.19;;;29.58;40.44
58070;BME280;43863;52.256;21.048;2022-07-04T08:49:05;100650.31;;;29.63;39.15
58070;BME280;43863;52.256;21.048;2022-07-04T08:51:47;100642.16;;;29.39;39.25
58070;BME280;43863;52.256;21.048;2022-07-04T08:54:19;100641.28;;;29.00;39.66
58070;BME280;43863;52.256;21.048;2022-07-04T08:57:06;100653.84;;;28.77;40.26
58070;BME280;43863;52.256;21.048;2022-07-04T08:59:52;100665.53;;;28.59;39.76
58070;BME280;43863;52.256;21.048;2022-07-04T09:02:22;100657.06;;;28.61;39.87
58070;BME280;43863;52.256;21.048;2022-07-04T09:04:52;100651.41;;;28.76;39.02
58070;BME280;43863;52.256;21.048;2022-07-04T09:07:20;100642.63;;;28.79;38.65
58070;BME280;43863;52.256;21.048;2022-07-04T09:09:49;100643.97;;;28.82;38.99
58070;BME280;43863;52.256;21.048;2022-07-04T09:12:19;100642.50;;;28.89;38.39
58070;BME280;43863;52.256;21.048;2022-07-04T09:14:51;100651.88;;;29.07;38.57
58070;BME280;43863;52.256;21.048;2022-07-04T09:17:19;100651.13;;;29.25;38.50
58070;BME280;43863;52.256;21.048;2022-07-04T09:20:19;100644.53;;;29.45;38.33
58070;BME280;43863;52.256;21.048;2022-07-04T09:22:50;100643.72;;;29.45;37.74
58070;BME280;43863;52.256;21.048;2022-07-04T09:25:19;100642.69;;;29.60;38.17
58070;BME280;43863;52.256;21.048;2022-07-04T09:27:50;100645.19;;;29.75;37.64
58070;BME280;43863;52.256;21.048;2022-07-04T09:30:20;100654.81;;;29.91;37.29
58070;BME280;43863;52.256;21.048;2022-07-04T09:32:51;100662.09;;;29.82;36.48
58070;BME280;43863;52.256;21.048;2022-07-04T09:35:22;100660.63;;;29.71;35.61
58070;BME280;43863;52.256;21.048;2022-07-04T09:37:53;100667.34;;;29.79;35.43
58070;BME280;43863;52.256;21.048;2022-07-04T09:40:32;100662.44;;;29.95;35.33
58070;BME280;43863;52.256;21.048;2022-07-04T09:43:10;100657.38;;;30.02;35.17
58070;BME280;43863;52.256;21.048;2022-07-04T09:45:56;100661.16;;;30.06;35.01
58070;BME280;43863;52.256;21.048;2022-07-04T09:48:25;100656.50;;;30.06;35.52
58070;BME280;43863;52.256;21.048;2022-07-04T09:50:53;100658.63;;;30.09;35.60
58070;BME280;43863;52.256;21.048;2022-07-04T09:53:26;100652.97;;;30.20;35.50
58070;BME280;43863;52.256;21.048;2022-07-04T09:55:55;100645.81;;;30.37;35.32
58070;BME280;43863;52.256;21.048;2022-07-04T09:58:23;100653.47;;;30.54;35.31
58070;BME280;43863;52.256;21.048;2022-07-04T10:00:52;100649.09;;;30.53;35.42
58070;BME280;43863;52.256;21.048;2022-07-04T10:03:28;100655.41;;;30.54;35.69
58070;BME280;43863;52.256;21.048;2022-07-04T10:06:10;100659.38;;;30.62;35.49
58070;BME280;43863;52.256;21.048;2022-07-04T10:08:40;100666.53;;;30.44;35.61
58070;BME280;43863;52.256;21.048;2022-07-04T10:11:10;100658.53;;;30.61;35.91
58070;BME280;43863;52.256;21.048;2022-07-04T10:13:46;100651.06;;;30.80;35.68
58070;BME280;43863;52.256;21.048;2022-07-04T10:16:16;100661.53;;;30.78;35.54
58070;BME280;43863;52.256;21.048;2022-07-04T10:18:44;100657.94;;;30.78;35.73
58070;BME280;43863;52.256;21.048;2022-07-04T10:21:12;100651.59;;;30.82;35.83
58070;BME280;43863;52.256;21.048;2022-07-04T10:23:43;100654.13;;;30.93;35.83
58070;BME280;43863;52.256;21.048;2022-07-04T10:26:11;100656.88;;;30.93;35.08
58070;BME280;43863;52.256;21.048;2022-07-04T10:28:40;100653.06;;;30.75;35.61
58070;BME280;43863;52.256;21.048;2022-07-04T10:31:13;100645.38;;;30.77;35.24
58070;BME280;43863;52.256;21.048;2022-07-04T10:33:43;100642.84;;;30.80;35.75
58070;BME280;43863;52.256;21.048;2022-07-04T10:36:18;100644.03;;;31.02;35.09
58070;BME280;43863;52.256;21.048;2022-07-04T10:45:02;100654.06;;;31.34;34.36
58070;BME280;43863;52.256;21.048;2022-07-04T10:47:31;100654.81;;;31.12;34.79
58070;BME280;43863;52.256;21.048;2022-07-04T10:50:01;100642.19;;;31.25;35.11
58070;BME280;43863;52.256;21.048;2022-07-04T10:52:30;100645.13;;;31.42;34.56
58070;BME280;43863;52.256;21.048;2022-07-04T10:55:11;100642.66;;;31.55;33.88
58070;BME280;43863;52.256;21.048;2022-07-04T10:57:39;100634.44;;;31.41;34.37
58070;BME280;43863;52.256;21.048;2022-07-04T11:00:32;100636.19;;;31.37;34.38
58070;BME280;43863;52.256;21.048;2022-07-04T11:03:17;100634.66;;;31.31;34.49
58070;BME280;43863;52.256;21.048;2022-07-04T11:05:45;100642.00;;;31.21;34.52
58070;BME280;43863;52.256;21.048;2022-07-04T11:08:13;100638.56;;;31.16;34.72
58070;BME280;43863;52.256;21.048;2022-07-04T11:10:42;100637.06;;;31.32;34.36
58070;BME280;43863;52.256;21.048;2022-07-04T11:13:15;100634.75;;;31.39;34.25
58070;BME280;43863;52.256;21.048;2022-07-04T11:18:12;100628.38;;;31.66;34.18
58070;BME280;43863;52.256;21.048;2022-07-04T11:20:43;100636.28;;;31.45;34.34
58070;BME280;43863;52.256;21.048;2022-07-04T11:23:13;100622.66;;;31.40;34.52
58070;BME280;43863;52.256;21.048;2022-07-04T11:25:45;100626.22;;;31.41;34.63
58070;BME280;43863;52.256;21.048;2022-07-04T11:28:33;100616.75;;;31.33;34.35
58070;BME280;43863;52.256;21.048;2022-07-04T11:31:13;100619.72;;;31.37;35.01
58070;BME280;43863;52.256;21.048;2022-07-04T11:33:42;100623.16;;;31.42;35.00
58070;BME280;43863;52.256;21.048;2022-07-04T11:36:16;100630.78;;;31.32;34.49
58070;BME280;43863;52.256;21.048;2022-07-04T11:38:57;100615.75;;;31.43;34.60
58070;BME280;43863;52.256;21.048;2022-07-04T11:41:38;100622.06;;;31.66;33.84
58070;BME280;43863;52.256;21.048;2022-07-04T11:44:28;100612.75;;;31.76;33.70
58070;BME280;43863;52.256;21.048;2022-07-04T11:47:20;100607.31;;;31.84;33.64
58070;BME280;43863;52.256;21.048;2022-07-04T11:50:15;100611.03;;;32.02;33.48
58070;BME280;43863;52.256;21.048;2022-07-04T11:52:48;100606.16;;;31.99;33.29
58070;BME280;43863;52.256;21.048;2022-07-04T11:55:37;100593.09;;;32.05;33.05
58070;BME280;43863;52.256;21.048;2022-07-04T11:58:07;100596.97;;;32.04;33.25
58070;BME280;43863;52.256;21.048;2022-07-04T12:00:40;100596.66;;;32.05;33.14
58070;BME280;43863;52.256;21.048;2022-07-04T12:03:09;100599.16;;;31.93;33.21
58070;BME280;43863;52.256;21.048;2022-07-04T12:05:38;100591.91;;;31.52;33.37
58070;BME280;43863;52.256;21.048;2022-07-04T12:08:07;100584.66;;;31.20;33.78
58070;BME280;43863;52.256;21.048;2022-07-04T12:10:54;100587.81;;;31.27;33.78
58070;BME280;43863;52.256;21.048;2022-07-04T12:13:21;100575.53;;;31.47;33.70
58070;BME280;43863;52.256;21.048;2022-07-04T12:15:50;100582.47;;;31.67;33.52
58070;BME280;43863;52.256;21.048;2022-07-04T12:18:22;100578.34;;;31.78;33.11
58070;BME280;43863;52.256;21.048;2022-07-04T12:20:52;100581.63;;;31.80;33.13
58070;BME280;43863;52.256;21.048;2022-07-04T12:23:22;100575.56;;;31.69;33.09
58070;BME280;43863;52.256;21.048;2022-07-04T12:25:54;100579.00;;;31.75;33.29
58070;BME280;43863;52.256;21.048;2022-07-04T12:28:21;100584.72;;;31.87;33.01
58070;BME280;43863;52.256;21.048;2022-07-04T12:30:51;100578.94;;;31.89;32.86
58070;BME280;43863;52.256;21.048;2022-07-04T12:33:24;100581.56;;;31.94;32.77
58070;BME280;43863;52.256;21.048;2022-07-04T12:38:32;100581.56;;;31.71;32.24
58070;BME280;43863;52.256;21.048;2022-07-04T12:41:08;100587.16;;;31.66;32.53
58070;BME280;43863;52.256;21.048;2022-07-04T12:48:53;100592.47;;;31.63;32.33
58070;BME280;43863;52.256;21.048;2022-07-04T12:51:32;100580.34;;;31.64;32.24
58070;BME280;43863;52.256;21.048;2022-07-04T12:54:09;100586.09;;;31.76;32.81
58070;BME280;43863;52.256;21.048;2022-07-04T12:56:40;100581.97;;;31.87;32.61
58070;BME280;43863;52.256;21.048;2022-07-04T12:59:16;100589.91;;;31.89;31.70
58070;BME280;43863;52.256;21.048;2022-07-04T13:01:47;100583.38;;;31.54;32.04
58070;BME280;43863;52.256;21.048;2022-07-04T13:04:15;100573.47;;;31.30;32.47
58070;BME280;43863;52.256;21.048;2022-07-04T13:06:44;100581.63;;;31.21;32.34
58070;BME280;43863;52.256;21.048;2022-07-04T13:09:12;100573.47;;;30.80;33.08
58070;BME280;43863;52.256;21.048;2022-07-04T13:11:40;100580.75;;;30.57;33.27
58070;BME280;43863;52.256;21.048;2022-07-04T13:14:26;100577.22;;;30.43;33.56
58070;BME280;43863;52.256;21.048;2022-07-04T13:16:54;100566.66;;;30.36;33.71
58070;BME280;43863;52.256;21.048;2022-07-04T13:19:22;100567.25;;;30.33;33.99
58070;BME280;43863;52.256;21.048;2022-07-04T13:21:49;100562.50;;;30.38;34.23
58070;BME280;43863;52.256;21.048;2022-07-04T13:24:17;100551.31;;;30.49;33.86
58070;BME280;43863;52.256;21.048;2022-07-04T13:26:45;100548.47;;;30.54;33.67